createdAt,value
2018-06-20T00:02:08.608Z,4.40
2018-06-20T00:04:37.648Z,4.93
2018-06-20T00:07:06.846Z,4.78
2018-06-20T00:09:36.047Z,5.90
2018-06-20T00:12:05.246Z,3.77
2018-06-20T00:14:34.394Z,4.40
2018-06-20T00:17:03.540Z,4.47
2018-06-20T00:19:32.950Z,5.13
2018-06-20T00:22:02.138Z,6.67
2018-06-20T00:24:31.454Z,7.03
2018-06-20T00:27:00.431Z,5.57
2018-06-20T00:29:29.626Z,6.20
2018-06-20T00:31:58.570Z,5.17
2018-06-20T00:34:28.127Z,5.10
2018-06-20T00:36:57.347Z,6.40
2018-06-20T00:39:26.523Z,4.58
2018-06-20T00:41:55.515Z,6.50
2018-06-20T00:44:24.713Z,5.73
2018-06-20T00:46:53.124Z,4.13
2018-06-20T00:49:21.498Z,5.30
2018-06-20T00:51:50.576Z,5.27
2018-06-20T00:54:19.423Z,7.93
2018-06-20T00:56:47.944Z,4.00
2018-06-20T00:59:16.307Z,4.72
2018-06-20T01:01:44.715Z,4.37
2018-06-20T01:04:13.209Z,5.00
2018-06-20T01:06:41.739Z,4.67
2018-06-20T01:09:11.050Z,4.43
2018-06-20T01:11:39.785Z,7.00
2018-06-20T01:14:08.254Z,7.23
2018-06-20T01:16:36.887Z,8.27
2018-06-20T01:19:05.351Z,4.80
2018-06-20T01:21:34.298Z,7.03
2018-06-20T01:24:02.971Z,5.07
2018-06-20T01:26:31.410Z,5.80
2018-06-20T01:29:00.032Z,6.83
2018-06-20T01:31:28.680Z,5.17
2018-06-20T01:33:57.374Z,4.93
2018-06-20T01:36:25.798Z,5.90
2018-06-20T01:38:54.230Z,5.53
2018-06-20T01:41:22.702Z,5.73
2018-06-20T01:43:51.922Z,7.30
2018-06-20T01:46:20.337Z,6.70
2018-06-20T01:48:48.735Z,6.20
2018-06-20T01:51:17.258Z,5.47
2018-06-20T01:53:45.772Z,5.77
2018-06-20T02:03:01.581Z,6.90
2018-06-20T02:05:30.201Z,6.07
2018-06-20T02:07:58.622Z,6.60
2018-06-20T02:10:27.046Z,7.70
2018-06-20T02:12:55.531Z,6.30
2018-06-20T02:15:24.134Z,6.67
2018-06-20T02:17:52.593Z,6.33
2018-06-20T02:20:20.995Z,7.27
2018-06-20T02:22:49.439Z,6.27
2018-06-20T02:25:17.859Z,7.23
2018-06-20T02:27:46.389Z,6.57
2018-06-20T02:30:14.824Z,7.17
2018-06-20T02:32:43.390Z,6.40
2018-06-20T02:35:12.398Z,8.10
2018-06-20T02:37:41.242Z,7.30
2018-06-20T02:40:09.820Z,6.30
2018-06-20T02:42:38.245Z,6.03
2018-06-20T02:45:06.715Z,6.33
2018-06-20T02:47:44.956Z,7.83
2018-06-20T02:50:14.344Z,6.67
2018-06-20T02:52:43.016Z,7.40
2018-06-20T02:55:11.646Z,7.30
2018-06-20T02:57:40.326Z,7.10
2018-06-20T03:00:08.858Z,7.67
2018-06-20T03:02:37.335Z,7.57
2018-06-20T03:05:05.781Z,6.90
2018-06-20T03:07:34.842Z,6.83
2018-06-20T03:10:03.701Z,7.13
2018-06-20T03:12:32.106Z,7.37
2018-06-20T03:15:00.567Z,7.83
2018-06-20T03:17:29.391Z,7.93
2018-06-20T03:19:57.884Z,7.67
2018-06-20T03:22:26.340Z,10.17
2018-06-20T03:24:55.338Z,7.30
2018-06-20T03:27:24.368Z,7.70
2018-06-20T03:29:52.724Z,7.10
2018-06-20T03:32:21.320Z,7.53
2018-06-20T03:34:49.778Z,7.67
2018-06-20T03:37:18.274Z,8.33
2018-06-20T03:39:47.072Z,7.20
2018-06-20T03:42:15.665Z,8.30
2018-06-20T03:44:44.138Z,7.63
2018-06-20T03:47:13.514Z,8.00
2018-06-20T03:49:42.023Z,7.77
2018-06-20T03:52:10.513Z,8.10
2018-06-20T03:54:38.954Z,7.73
2018-06-20T03:57:07.333Z,7.23
2018-06-20T03:59:35.807Z,10.50
2018-06-20T04:02:04.339Z,8.23
2018-06-20T04:04:32.779Z,9.40
2018-06-20T04:07:01.199Z,10.83
2018-06-20T04:09:29.753Z,9.40
2018-06-20T04:11:59.080Z,9.70
2018-06-20T04:14:27.818Z,10.17
2018-06-20T04:16:56.344Z,9.73
2018-06-20T04:19:24.976Z,10.57
2018-06-20T04:21:53.410Z,11.13
2018-06-20T04:24:22.108Z,10.53
2018-06-20T04:26:50.579Z,9.77
2018-06-20T04:29:19.117Z,11.00
2018-06-20T04:31:48.225Z,10.90
2018-06-20T04:34:16.705Z,11.37
2018-06-20T04:36:45.138Z,10.60
2018-06-20T04:39:13.630Z,10.33
2018-06-20T04:41:42.078Z,11.97
2018-06-20T04:44:10.517Z,10.60
2018-06-20T04:46:38.919Z,11.60
2018-06-20T04:49:07.286Z,11.10
2018-06-20T04:51:35.678Z,12.00
2018-06-20T04:54:04.175Z,11.33
2018-06-20T04:56:33.029Z,12.80
2018-06-20T04:59:01.407Z,11.60
2018-06-20T05:01:29.797Z,12.20
2018-06-20T05:03:58.505Z,12.35
2018-06-20T05:06:27.083Z,12.53
2018-06-20T05:08:55.557Z,13.97
2018-06-20T05:11:24.287Z,12.83
2018-06-20T05:13:52.790Z,13.87
2018-06-20T05:16:21.261Z,12.40
2018-06-20T05:18:49.809Z,12.40
2018-06-20T05:21:18.457Z,14.40
2018-06-20T05:23:47.323Z,16.77
2018-06-20T05:26:15.730Z,23.67
2018-06-20T05:28:44.138Z,24.40
2018-06-20T05:31:12.546Z,19.53
2018-06-20T05:33:41.074Z,16.03
2018-06-20T05:36:09.471Z,16.80
2018-06-20T05:38:37.861Z,16.87
2018-06-20T05:41:06.561Z,14.93
2018-06-20T05:43:35.349Z,14.90
2018-06-20T05:46:03.824Z,16.37
2018-06-20T05:48:32.322Z,17.93
2018-06-20T05:51:00.754Z,21.82
2018-06-20T05:53:29.363Z,15.77
2018-06-20T05:55:57.866Z,16.65
2018-06-20T05:58:26.450Z,15.85
2018-06-20T06:00:55.808Z,16.87
2018-06-20T06:03:24.363Z,15.78
2018-06-20T06:06:09.238Z,17.37
2018-06-20T06:08:37.677Z,16.57
2018-06-20T06:11:06.294Z,16.27
2018-06-20T06:13:34.723Z,18.98
2018-06-20T06:16:03.387Z,16.45
2018-06-20T06:18:32.002Z,18.15
2018-06-20T06:21:00.662Z,17.42
2018-06-20T06:23:29.222Z,17.75
2018-06-20T06:25:58.089Z,16.30
2018-06-20T06:28:27.354Z,15.90
2018-06-20T06:30:55.819Z,16.83
2018-06-20T06:33:24.708Z,18.70
2018-06-20T06:35:53.702Z,17.37
2018-06-20T06:38:22.090Z,16.77
2018-06-20T06:40:50.478Z,17.32
2018-06-20T06:43:19.035Z,18.17
2018-06-20T06:45:48.925Z,15.48
2018-06-20T06:48:17.623Z,19.17
2018-06-20T06:50:46.166Z,15.70
2018-06-20T06:53:14.689Z,15.83
2018-06-20T06:55:43.166Z,19.55
2018-06-20T06:58:11.692Z,18.27
2018-06-20T07:00:40.909Z,15.53
2018-06-20T07:03:09.411Z,18.50
2018-06-20T07:05:37.838Z,16.07
2018-06-20T07:08:06.207Z,15.15
2018-06-20T07:10:34.642Z,16.27
2018-06-20T07:13:03.112Z,16.85
2018-06-20T07:15:31.588Z,16.20
2018-06-20T07:18:00.189Z,14.40
2018-06-20T07:20:28.663Z,14.87
2018-06-20T07:22:57.122Z,14.53
2018-06-20T07:25:25.538Z,17.65
2018-06-20T07:27:53.966Z,26.30
2018-06-20T07:30:22.387Z,17.73
2018-06-20T07:32:50.823Z,25.02
2018-06-20T07:35:20.295Z,24.65
2018-06-20T07:37:48.892Z,17.02
2018-06-20T07:40:17.327Z,20.62
2018-06-20T07:42:45.822Z,19.37
2018-06-20T07:45:14.354Z,27.87
2018-06-20T07:47:42.734Z,19.07
2018-06-20T07:50:11.283Z,14.70
2018-06-20T07:52:39.744Z,20.70
2018-06-20T07:55:08.484Z,15.30
2018-06-20T07:57:36.929Z,22.75
2018-06-20T08:00:14.522Z,18.98
2018-06-20T08:02:59.565Z,20.12
2018-06-20T08:05:33.389Z,14.43
2018-06-20T08:08:07.162Z,12.05
2018-06-20T08:10:40.890Z,15.53
2018-06-20T08:13:14.626Z,10.93
2018-06-20T08:15:48.202Z,10.78
2018-06-20T08:18:22.010Z,11.28
2018-06-20T08:20:50.510Z,9.68
2018-06-20T08:23:19.033Z,13.40
2018-06-20T08:25:47.606Z,10.38
2018-06-20T08:28:16.214Z,8.78
2018-06-20T08:30:44.798Z,10.78
2018-06-20T08:33:13.373Z,10.88
2018-06-20T08:35:41.949Z,8.83
2018-06-20T08:38:10.338Z,8.25
2018-06-20T08:40:38.719Z,7.83
2018-06-20T08:43:07.138Z,5.20
2018-06-20T08:45:35.794Z,7.60
2018-06-20T08:48:04.267Z,6.60
2018-06-20T08:50:32.772Z,6.40
2018-06-20T08:53:01.291Z,7.45
2018-06-20T08:55:29.952Z,5.67
2018-06-20T08:57:59.246Z,5.35
2018-06-20T09:00:33.022Z,5.70
2018-06-20T09:03:01.581Z,5.08
2018-06-20T09:05:35.261Z,8.88
2018-06-20T09:08:09.206Z,6.30
2018-06-20T09:10:42.836Z,6.42
2018-06-20T09:13:16.630Z,10.03
2018-06-20T09:15:50.318Z,4.92
2018-06-20T09:18:23.960Z,4.58
2018-06-20T09:20:52.437Z,7.92
2018-06-20T09:23:20.965Z,5.15
2018-06-20T09:25:49.387Z,6.97
2018-06-20T09:28:17.893Z,5.58
2018-06-20T09:30:46.334Z,5.92
2018-06-20T09:33:15.284Z,6.10
2018-06-20T09:35:43.800Z,8.70
2018-06-20T09:38:12.270Z,11.43
2018-06-20T09:40:42.103Z,13.70
2018-06-20T09:43:10.530Z,8.28
2018-06-20T09:45:39.153Z,11.95
2018-06-20T09:48:07.649Z,8.75
2018-06-20T09:50:41.173Z,5.62
2018-06-20T09:53:09.641Z,12.28
2018-06-20T09:55:38.162Z,9.20
2018-06-20T09:58:06.622Z,22.25
2018-06-20T10:00:40.436Z,14.25
2018-06-20T10:03:14.039Z,5.83
2018-06-20T10:05:47.816Z,5.62
2018-06-20T10:08:21.678Z,5.67
2018-06-20T10:10:55.507Z,4.28
2018-06-20T10:13:26.243Z,7.35
2018-06-20T10:15:54.962Z,7.45
2018-06-20T10:18:24.034Z,7.20
2018-06-20T10:20:52.493Z,5.28
2018-06-20T10:23:20.946Z,3.42
2018-06-20T10:25:49.446Z,3.90
2018-06-20T10:28:17.905Z,4.67
2018-06-20T10:30:46.390Z,3.67
2018-06-20T10:33:14.931Z,3.47
2018-06-20T10:35:43.493Z,6.08
2018-06-20T10:38:11.966Z,3.60
2018-06-20T10:40:40.614Z,5.58
2018-06-20T10:43:09.069Z,5.47
2018-06-20T10:45:42.933Z,4.47
2018-06-20T10:48:13.514Z,4.40
2018-06-20T10:50:42.422Z,7.17
2018-06-20T10:53:11.495Z,6.45
2018-06-20T10:55:40.627Z,5.08
2018-06-20T10:58:14.401Z,4.95
2018-06-20T11:00:48.251Z,6.35
2018-06-20T11:03:21.957Z,2.92
2018-06-20T11:05:55.769Z,2.95
2018-06-20T11:08:29.658Z,4.47
2018-06-20T11:11:03.259Z,3.75
2018-06-20T11:13:31.702Z,3.70
2018-06-20T11:16:00.887Z,5.03
2018-06-20T11:18:29.391Z,5.28
2018-06-20T11:20:58.719Z,4.85
2018-06-20T11:23:27.660Z,3.05
2018-06-20T11:25:56.258Z,3.47
2018-06-20T11:28:24.773Z,3.10
2018-06-20T11:30:53.428Z,3.75
2018-06-20T11:33:21.821Z,4.62
2018-06-20T11:35:50.353Z,4.58
2018-06-20T11:38:18.780Z,5.28
2018-06-20T11:40:47.366Z,3.45
2018-06-20T11:43:15.980Z,3.30
2018-06-20T11:45:50.126Z,4.97
2018-06-20T11:48:18.716Z,5.12
2018-06-20T11:50:47.141Z,3.35
2018-06-20T11:53:15.591Z,2.40
2018-06-20T11:55:45.394Z,2.92
2018-06-20T11:58:19.269Z,5.03
2018-06-20T12:00:52.918Z,4.15
2018-06-20T12:03:26.721Z,3.27
2018-06-20T12:06:00.629Z,3.85
2018-06-20T12:08:34.386Z,3.40
2018-06-20T12:11:08.032Z,2.85
2018-06-20T12:13:41.923Z,4.20
2018-06-20T12:16:15.729Z,4.58
2018-06-20T12:18:49.542Z,3.90
2018-06-20T12:21:23.348Z,4.08
2018-06-20T12:23:58.167Z,7.45
2018-06-20T12:26:32.090Z,2.80
2018-06-20T12:29:05.617Z,3.55
2018-06-20T12:31:39.678Z,3.90
2018-06-20T12:34:13.423Z,2.62
2018-06-20T12:36:47.190Z,2.95
2018-06-20T12:39:14.747Z,2.75
2018-06-20T12:41:48.391Z,4.20
2018-06-20T12:44:22.141Z,3.00
2018-06-20T12:47:05.488Z,2.80
2018-06-20T12:49:36.203Z,3.50
2018-06-20T12:52:04.957Z,5.08
2018-06-20T12:54:33.928Z,3.10
2018-06-20T12:57:02.430Z,2.90
2018-06-20T12:59:30.867Z,3.05
2018-06-20T13:01:59.391Z,2.87
2018-06-20T13:04:27.834Z,2.17
2018-06-20T13:06:56.548Z,3.37
2018-06-20T13:09:25.019Z,3.45
2018-06-20T13:11:53.411Z,4.67
2018-06-20T13:14:21.826Z,2.87
2018-06-20T13:16:50.699Z,4.28
2018-06-20T13:19:19.331Z,3.05
2018-06-20T13:21:48.043Z,4.58
2018-06-20T13:24:16.476Z,6.28
2018-06-20T13:26:45.117Z,5.58
2018-06-20T13:29:13.862Z,3.50
2018-06-20T13:31:47.622Z,3.08
2018-06-20T13:34:21.906Z,2.87
2018-06-20T13:36:55.679Z,5.92
2018-06-20T13:39:29.407Z,5.65
2018-06-20T13:42:02.515Z,3.05
2018-06-20T13:44:31.050Z,4.08
2018-06-20T13:47:04.918Z,5.20
2018-06-20T13:49:33.912Z,4.62
2018-06-20T13:52:02.371Z,4.20
2018-06-20T13:54:31.193Z,5.10
2018-06-20T13:56:59.585Z,4.17
2018-06-20T13:59:28.596Z,2.80
2018-06-20T14:01:57.126Z,3.65
2018-06-20T14:04:25.525Z,3.77
2018-06-20T14:06:54.083Z,5.85
2018-06-20T14:09:22.497Z,5.20
2018-06-20T14:11:50.959Z,4.37
2018-06-20T14:14:19.394Z,4.78
2018-06-20T14:16:47.864Z,2.90
2018-06-20T14:19:16.508Z,3.00
2018-06-20T14:21:45.038Z,5.78
2018-06-20T14:24:13.578Z,4.40
2018-06-20T14:26:42.271Z,4.53
2018-06-20T14:29:11.258Z,2.95
2018-06-20T14:31:44.750Z,3.20
2018-06-20T14:34:18.537Z,3.15
2018-06-20T14:36:52.062Z,3.55
2018-06-20T14:40:28.667Z,3.67
2018-06-20T14:43:03.568Z,3.72
2018-06-20T14:45:37.262Z,3.02
2018-06-20T14:48:05.636Z,2.77
2018-06-20T14:50:34.164Z,3.00
2018-06-20T14:53:02.638Z,2.87
2018-06-20T14:55:31.161Z,3.15
2018-06-20T14:57:59.769Z,3.12
2018-06-20T15:00:28.358Z,4.42
2018-06-20T15:02:56.831Z,2.62
2018-06-20T15:05:25.415Z,2.92
2018-06-20T15:07:53.827Z,4.30
2018-06-20T15:10:22.618Z,3.45
2018-06-20T15:12:51.258Z,4.62
2018-06-20T15:15:19.697Z,3.45
2018-06-20T15:17:48.157Z,4.75
2018-06-20T15:20:16.668Z,2.52
2018-06-20T15:22:47.579Z,3.10
2018-06-20T15:25:17.254Z,2.92
2018-06-20T15:27:51.039Z,3.67
2018-06-20T15:30:24.711Z,3.20
2018-06-20T15:32:58.436Z,5.35
2018-06-20T15:35:32.246Z,3.72
2018-06-20T15:38:05.697Z,3.15
2018-06-20T15:40:34.098Z,2.77
2018-06-20T15:43:02.571Z,3.90
2018-06-20T15:45:31.083Z,3.87
2018-06-20T15:47:59.716Z,3.27
2018-06-20T15:50:28.218Z,2.75
2018-06-20T15:52:56.618Z,5.42
2018-06-20T15:55:25.111Z,2.92
2018-06-20T15:57:54.799Z,3.42
2018-06-20T16:00:23.333Z,4.58
2018-06-20T16:02:51.786Z,4.75
2018-06-20T16:05:20.273Z,4.10
2018-06-20T16:07:48.907Z,5.35
2018-06-20T16:10:18.740Z,4.50
2018-06-20T16:15:48.972Z,19.37
2018-06-20T16:18:20.985Z,33.60
2018-06-20T16:21:16.021Z,28.65
2018-06-20T16:25:44.080Z,28.30
2018-06-20T16:28:24.446Z,30.70
2018-06-20T16:30:54.241Z,26.60
2018-06-20T16:33:31.645Z,27.10
2018-06-20T16:36:00.068Z,5.72
2018-06-20T16:38:28.718Z,4.45
2018-06-20T16:40:57.307Z,4.85
2018-06-20T16:43:25.710Z,3.85
2018-06-20T16:47:34.907Z,16.12
2018-06-20T16:50:03.333Z,3.80
2018-06-20T16:52:31.850Z,3.37
2018-06-20T16:55:05.667Z,33.35
2018-06-20T16:57:34.148Z,3.45
2018-06-20T17:00:02.699Z,2.77
2018-06-20T17:02:34.609Z,3.20
2018-06-20T17:05:03.162Z,2.83
2018-06-20T17:07:31.759Z,3.62
2018-06-20T17:10:00.251Z,7.75
2018-06-20T17:12:34.058Z,4.03
2018-06-20T17:15:07.770Z,3.15
2018-06-20T17:17:41.619Z,2.50
2018-06-20T17:20:15.415Z,4.30
2018-06-20T17:22:49.295Z,2.47
2018-06-20T17:25:25.300Z,2.87
2018-06-20T17:27:53.723Z,2.75
2018-06-20T17:30:22.129Z,2.92
2018-06-20T17:32:50.693Z,2.90
2018-06-20T17:35:19.336Z,3.72
2018-06-20T17:37:47.779Z,3.77
2018-06-20T17:40:16.615Z,4.65
2018-06-20T17:42:45.133Z,4.35
2018-06-20T17:45:13.808Z,2.70
2018-06-20T17:47:42.443Z,4.85
2018-06-20T17:50:11.279Z,3.12
2018-06-20T17:52:39.731Z,2.30
2018-06-20T17:55:08.519Z,2.65
2018-06-20T17:57:37.347Z,2.77
2018-06-20T18:00:05.858Z,3.22
2018-06-20T18:02:34.305Z,3.05
2018-06-20T18:05:07.937Z,3.22
2018-06-20T18:07:41.971Z,3.67
2018-06-20T18:10:15.779Z,4.97
2018-06-20T18:12:49.520Z,4.55
2018-06-20T18:15:23.447Z,3.92
2018-06-20T18:17:51.881Z,2.70
2018-06-20T18:20:20.335Z,4.28
2018-06-20T18:22:48.825Z,3.22
2018-06-20T18:25:17.340Z,3.65
2018-06-20T18:27:45.814Z,3.45
2018-06-20T18:30:14.438Z,2.70
2018-06-20T18:32:42.838Z,5.15
2018-06-20T18:35:11.423Z,5.80
2018-06-20T18:37:39.996Z,2.98
2018-06-20T18:40:10.214Z,3.80
2018-06-20T18:42:38.862Z,6.37
2018-06-20T18:45:07.558Z,3.30
2018-06-20T18:47:41.402Z,4.00
2018-06-20T18:50:10.446Z,3.10
2018-06-20T18:52:38.902Z,2.55
2018-06-20T18:55:07.436Z,3.58
2018-06-20T18:57:41.306Z,2.92
2018-06-20T19:00:15.118Z,2.75
2018-06-20T19:02:48.716Z,4.90
2018-06-20T19:05:22.626Z,3.45
2018-06-20T19:07:56.482Z,5.53
2018-06-20T19:10:24.970Z,4.95
2018-06-20T19:12:53.589Z,4.12
2018-06-20T19:15:22.027Z,5.67
2018-06-20T19:17:50.491Z,3.12
2018-06-20T19:20:19.030Z,3.15
2018-06-20T19:22:47.526Z,3.95
2018-06-20T19:25:16.106Z,3.77
2018-06-20T19:27:44.847Z,5.60
2018-06-20T19:30:13.466Z,10.60
2018-06-20T19:32:41.874Z,12.10
2018-06-20T19:35:10.278Z,12.88
2018-06-20T19:37:38.959Z,9.80
2018-06-20T19:40:07.476Z,14.60
2018-06-20T19:42:36.126Z,11.35
2018-06-20T19:45:04.743Z,6.78
2018-06-20T19:47:33.211Z,6.25
2018-06-20T19:50:01.650Z,8.68
2018-06-20T19:52:31.054Z,5.62
2018-06-20T19:54:59.522Z,4.08
2018-06-20T19:57:28.107Z,6.28
2018-06-20T19:59:56.641Z,5.95
2018-06-20T20:02:25.178Z,5.72
2018-06-20T20:04:53.578Z,5.67
2018-06-20T20:07:22.074Z,5.78
2018-06-20T20:09:50.570Z,4.65
2018-06-20T20:12:19.030Z,7.80
2018-06-20T20:14:47.622Z,5.30
2018-06-20T20:17:16.075Z,7.87
2018-06-20T20:19:44.570Z,5.58
2018-06-20T20:22:13.191Z,8.20
2018-06-20T20:24:44.574Z,8.90
2018-06-20T20:27:13.552Z,6.47
2018-06-20T20:29:42.008Z,5.78
2018-06-20T20:32:11.670Z,4.95
2018-06-20T20:34:40.087Z,6.03
2018-06-20T20:37:08.488Z,5.67
2018-06-20T20:39:36.906Z,5.65
2018-06-20T20:42:06.804Z,4.00
2018-06-20T20:44:35.269Z,3.52
2018-06-20T20:47:03.754Z,18.32
2018-06-20T20:49:32.400Z,13.55
2018-06-20T20:52:00.806Z,12.82
2018-06-20T20:54:29.277Z,17.85
2018-06-20T20:56:58.842Z,15.28
2018-06-20T20:59:27.239Z,9.28
2018-06-20T21:01:56.147Z,6.17
2018-06-20T21:04:24.623Z,4.47
2018-06-20T21:06:53.240Z,6.10
2018-06-20T21:09:21.665Z,5.45
2018-06-20T21:11:50.198Z,4.90
2018-06-20T21:14:18.731Z,5.53
2018-06-20T21:16:47.267Z,5.17
2018-06-20T21:19:15.731Z,5.12
2018-06-20T21:21:44.231Z,4.78
2018-06-20T21:24:12.787Z,4.60
2018-06-20T21:26:41.341Z,4.40
2018-06-20T21:29:09.862Z,8.50
2018-06-20T21:31:38.322Z,4.70
2018-06-20T21:34:06.813Z,4.75
2018-06-20T21:36:35.294Z,6.40
2018-06-20T21:39:04.158Z,7.00
2018-06-20T21:41:32.567Z,5.95
2018-06-20T21:44:01.038Z,8.78
2018-06-20T21:46:29.829Z,6.90
2018-06-20T21:48:58.380Z,7.62
2018-06-20T21:51:26.852Z,8.08
2018-06-20T21:53:55.318Z,5.58
2018-06-20T21:56:23.773Z,7.22
2018-06-20T21:58:52.158Z,7.10
2018-06-20T22:01:20.593Z,7.22
2018-06-20T22:03:48.998Z,7.65
2018-06-20T22:06:17.465Z,5.95
2018-06-20T22:08:45.958Z,9.03
2018-06-20T22:11:14.630Z,8.68
2018-06-20T22:13:43.131Z,5.35
2018-06-20T22:16:11.594Z,6.30
2018-06-20T22:18:40.075Z,4.92
2018-06-20T22:21:08.539Z,6.80
2018-06-20T22:23:36.938Z,5.03
2018-06-20T22:26:05.325Z,8.23
2018-06-20T22:28:33.991Z,4.80
2018-06-20T22:31:02.563Z,4.78
2018-06-20T22:33:30.999Z,5.15
2018-06-20T22:35:59.458Z,5.15
2018-06-20T22:38:27.978Z,5.72
2018-06-20T22:40:56.406Z,4.50
2018-06-20T22:43:24.878Z,5.65
2018-06-20T22:45:53.267Z,5.28
2018-06-20T22:48:21.726Z,5.50
2018-06-20T22:50:50.142Z,6.75
2018-06-20T22:53:18.596Z,9.50
2018-06-20T22:55:46.991Z,7.10
2018-06-20T22:58:15.602Z,5.58
2018-06-20T23:00:44.102Z,5.05
2018-06-20T23:03:12.547Z,7.03
2018-06-20T23:05:41.070Z,7.80
2018-06-20T23:08:09.497Z,6.03
2018-06-20T23:10:38.119Z,6.22
2018-06-20T23:13:06.482Z,6.12
2018-06-20T23:15:34.951Z,5.78
2018-06-20T23:18:03.750Z,5.67
2018-06-20T23:20:32.344Z,5.25
2018-06-20T23:23:00.786Z,7.90
2018-06-20T23:25:29.456Z,9.38
2018-06-20T23:27:57.985Z,7.03
2018-06-20T23:30:26.471Z,6.87
2018-06-20T23:32:54.914Z,5.33
2018-06-20T23:35:23.326Z,5.50
2018-06-20T23:37:51.788Z,5.15
2018-06-20T23:40:20.279Z,6.40
2018-06-20T23:42:48.752Z,5.92
2018-06-20T23:45:17.246Z,9.38
2018-06-20T23:47:45.718Z,6.05
2018-06-20T23:50:14.256Z,5.72
2018-06-20T23:52:42.709Z,6.22
2018-06-20T23:55:11.170Z,5.97
2018-06-20T23:57:39.641Z,6.55
